Los Linares, Argentina
Current Conditions -  °F | °C
As of 12:00 PM on Friday 31 Oct 2014 (Local Time) from SANT Reporting Station
Scattered Clouds Scattered Clouds  
Wind Chill: 82°   Ceiling: Unl
Heat Index: 85°   Visibility: 6mi
Dew Point: 66°   Wind: 5mph
Humidity: 58%   Direction: 140°SE
Pressure: 29.83"   Gusts: NA
Location:  28.37°S, 62.55°W
Report Text: SANT 311500Z 14004KT 9999 SCT025 SCT03028/19 Q1010
Loading
Personal Weather Stations






























Interactive Weather Map
Tropical Storm Tracking
New forecast layout! Learn more

10-Day Weather Forecast

Advertisements
Track Severe Weather on mobile